KGSP/GSP METAR and TAF weather

Enter ICAO airport designator
Station Type Date Time Source
KGSP METAR 2021/03/07 07:53 UTC NOAA

KGSP 070753Z AUTO 01003KT 10SM CLR 02/M10 A3024 RMK AO2 SLP238 T00221100


Station Type Date Time Source
KGSP Decoded METAR 2021/03/07 07:53 UTC NOAA

GREER GREENVILLE SPARTBURG, SC, United States (KGSP) 34-53N 82-13W 286M
Mar 07, 2021 - 02:53 AM EST / 2021.03.07 0753 UTC
Wind: from the N (010 degrees) at 3 MPH (3 KT):0
Visibility: 10 mile(s):0
Sky conditions: clear
Temperature: 36.0 F (2.2 C)
Dew Point: 14.0 F (-10.0 C)
Relative Humidity: 40%
Pressure (altimeter): 30.24 in. Hg (1024 hPa)
ob: KGSP 070753Z AUTO 01003KT 10SM CLR 02/M10 A3024 RMK AO2 SLP238 T00221100
cycle: 8

Station Type Date Time Source
KGSP TAF 2021/03/07 06:24 UTC NOAA

TAF KGSP 070521Z 0706/0806 01004KT P6SM SKC
FM071700 35007G14KT P6SM SKC
FM072300 35005KT P6SM SKC

Example: see airport list